Time;durP1;ratioP1;P1;durP2;ratioP2;P2;SDS_P1;SDS_P2;PMS_P1;PMS_P2;Temp;Humidity;BMP_temperature;BMP_pressure;BME280_temperature;BME280_humidity;BME280_pressure;Samples;Min_cycle;Max_cycle;Signal;HPM_P1;HPM_P2
2021/09/17 00:01:41;;;;;;;5.18;2.83;;;;;;;;;;5076005;28;20043;-71
2021/09/17 00:04:07;;;;;;;6.60;2.65;;;;;;;;;;5078053;28;20030;-72
2021/09/17 00:06:32;;;;;;;4.95;2.63;;;;;;;;;;5074580;28;20077;-73
2021/09/17 00:08:58;;;;;;;6.97;2.78;;;;;;;;;;5071342;28;20024;-73
2021/09/17 00:11:23;;;;;;;6.22;3.63;;;;;;;;;;5059798;28;20461;-72
2021/09/17 00:13:49;;;;;;;5.47;3.25;;;;;;;;;;5085842;28;20024;-72
2021/09/17 00:16:15;;;;;;;5.05;2.65;;;;;;;;;;5073519;28;20024;-71
2021/09/17 00:18:40;;;;;;;3.92;2.38;;;;;;;;;;5091134;28;20024;-72
2021/09/17 00:21:06;;;;;;;4.40;2.33;;;;;;;;;;5060312;28;20065;-72
2021/09/17 00:23:32;;;;;;;4.25;2.13;;;;;;;;;;5066250;28;20032;-71
2021/09/17 00:25:58;;;;;;;3.78;2.42;;;;;;;;;;5072348;28;20033;-73
2021/09/17 00:28:24;;;;;;;4.53;2.30;;;;;;;;;;5074522;28;20494;-72
2021/09/17 00:30:50;;;;;;;2.92;2.03;;;;;;;;;;5058284;28;20032;-72
2021/09/17 00:33:15;;;;;;;4.38;2.35;;;;;;;;;;5069356;28;20085;-72
2021/09/17 00:35:41;;;;;;;3.53;2.15;;;;;;;;;;5097554;28;20035;-73
2021/09/17 00:38:06;;;;;;;4.88;2.45;;;;;;;;;;5075042;28;20074;-72
2021/09/17 00:40:33;;;;;;;4.22;2.22;;;;;;;;;;5070526;28;20036;-73
2021/09/17 00:42:59;;;;;;;3.70;2.13;;;;;;;;;;5076569;28;20356;-72
2021/09/17 00:45:24;;;;;;;2.45;1.80;;;;;;;;;;5076305;28;20476;-73
2021/09/17 00:47:51;;;;;;;3.25;2.10;;;;;;;;;;5081250;28;20174;-74
2021/09/17 00:50:20;;;;;;;3.38;2.20;;;;;;;;;;5075193;28;20028;-73
2021/09/17 00:52:50;;;;;;;3.00;1.73;;;;;;;;;;5070208;28;20113;-73
2021/09/17 00:55:16;;;;;;;4.38;2.00;;;;;;;;;;5068946;28;20033;-74
2021/09/17 00:57:42;;;;;;;4.95;1.90;;;;;;;;;;5068460;28;20032;-72
2021/09/17 01:00:11;;;;;;;2.97;1.85;;;;;;;;;;5068490;28;20389;-73
2021/09/17 01:02:37;;;;;;;3.47;1.92;;;;;;;;;;5074958;28;20404;-71
2021/09/17 01:05:05;;;;;;;2.70;1.88;;;;;;;;;;5060788;28;20459;-72
2021/09/17 01:07:30;;;;;;;4.05;2.05;;;;;;;;;;5069241;28;20020;-72
2021/09/17 01:09:58;;;;;;;3.38;1.92;;;;;;;;;;5066660;28;20032;-74
2021/09/17 01:12:23;;;;;;;5.03;1.98;;;;;;;;;;5061791;28;20077;-72
2021/09/17 01:14:50;;;;;;;5.88;2.55;;;;;;;;;;5059655;28;20101;-73
2021/09/17 01:17:19;;;;;;;2.80;1.80;;;;;;;;;;5050378;28;20529;-73
2021/09/17 01:19:48;;;;;;;3.15;1.80;;;;;;;;;;5071009;28;20034;-73
2021/09/17 01:22:14;;;;;;;4.85;2.00;;;;;;;;;;5089864;28;20032;-73
2021/09/17 01:24:40;;;;;;;3.53;1.90;;;;;;;;;;5081035;28;20093;-73
2021/09/17 01:27:07;;;;;;;4.93;1.77;;;;;;;;;;5069689;28;20489;-73
2021/09/17 01:29:34;;;;;;;2.20;1.65;;;;;;;;;;5081537;28;20115;-73
2021/09/17 01:32:00;;;;;;;2.42;1.50;;;;;;;;;;5076094;28;20033;-72
2021/09/17 01:34:26;;;;;;;2.28;1.70;;;;;;;;;;5070907;28;20475;-74
2021/09/17 01:36:52;;;;;;;2.42;1.60;;;;;;;;;;5074448;28;20358;-73
2021/09/17 01:39:20;;;;;;;1.75;1.42;;;;;;;;;;5075038;28;20506;-74
2021/09/17 01:41:50;;;;;;;2.70;1.42;;;;;;;;;;5072139;28;20029;-74
2021/09/17 01:44:17;;;;;;;2.72;1.40;;;;;;;;;;5063114;28;20033;-73
2021/09/17 01:46:43;;;;;;;3.58;1.50;;;;;;;;;;5069615;28;20027;-71
2021/09/17 01:49:09;;;;;;;1.73;1.23;;;;;;;;;;5091396;28;20024;-72
2021/09/17 01:51:35;;;;;;;2.88;1.33;;;;;;;;;;5076767;28;20028;-73
2021/09/17 01:54:05;;;;;;;2.63;1.17;;;;;;;;;;5050566;28;20055;-72
2021/09/17 01:56:32;;;;;;;2.35;1.58;;;;;;;;;;5082615;28;20035;-73
2021/09/17 01:58:58;;;;;;;5.63;1.50;;;;;;;;;;5082274;28;20157;-71
2021/09/17 02:01:25;;;;;;;2.70;1.42;;;;;;;;;;5073304;28;20087;-73
2021/09/17 02:03:51;;;;;;;2.03;1.33;;;;;;;;;;5063835;28;20029;-72
2021/09/17 02:06:19;;;;;;;2.30;1.30;;;;;;;;;;5060562;28;20047;-72
2021/09/17 02:08:45;;;;;;;2.03;1.33;;;;;;;;;;5066454;28;20110;-73
2021/09/17 02:11:11;;;;;;;2.08;1.30;;;;;;;;;;5072408;28;20151;-73
2021/09/17 02:13:37;;;;;;;2.45;1.50;;;;;;;;;;5068048;28;20037;-71
2021/09/17 02:16:03;;;;;;;2.75;1.48;;;;;;;;;;5060173;28;20037;-72
2021/09/17 02:18:29;;;;;;;2.35;1.50;;;;;;;;;;5064384;28;20016;-74
2021/09/17 02:20:54;;;;;;;5.40;1.50;;;;;;;;;;5069888;28;20033;-73
2021/09/17 02:23:20;;;;;;;2.35;1.30;;;;;;;;;;5079986;28;20028;-72
2021/09/17 02:25:45;;;;;;;2.00;1.40;;;;;;;;;;5086516;28;20020;-72
2021/09/17 02:28:11;;;;;;;10.80;1.90;;;;;;;;;;5087545;28;20031;-73
2021/09/17 02:30:37;;;;;;;1.35;1.00;;;;;;;;;;5087321;28;20024;-72
2021/09/17 02:33:03;;;;;;;1.65;1.00;;;;;;;;;;5085222;28;20111;-72
2021/09/17 02:35:29;;;;;;;0.38;0.30;;;;;;;;;;5089576;28;20142;-72
2021/09/17 02:37:54;;;;;;;4.47;1.25;;;;;;;;;;5081882;28;20024;-71
2021/09/17 02:40:20;;;;;;;2.10;1.15;;;;;;;;;;5079381;28;20028;-73
2021/09/17 02:42:46;;;;;;;1.60;1.30;;;;;;;;;;5087607;28;20024;-73
2021/09/17 02:45:12;;;;;;;1.60;0.90;;;;;;;;;;5076619;28;20051;-71
2021/09/17 02:47:38;;;;;;;1.38;0.98;;;;;;;;;;5078227;28;20020;-72
2021/09/17 02:50:05;;;;;;;1.00;0.90;;;;;;;;;;5089657;28;20078;-74
2021/09/17 02:52:30;;;;;;;1.73;1.10;;;;;;;;;;5074250;28;20036;-74
2021/09/17 02:54:56;;;;;;;3.00;1.00;;;;;;;;;;5091669;28;20024;-72
2021/09/17 02:57:22;;;;;;;26.48;5.93;;;;;;;;;;5076530;28;20411;-73
2021/09/17 02:59:47;;;;;;;1.45;1.30;;;;;;;;;;5076546;28;20032;-73
2021/09/17 03:02:14;;;;;;;1.50;1.25;;;;;;;;;;5083990;28;20048;-72
2021/09/17 03:04:40;;;;;;;1.83;1.13;;;;;;;;;;5087580;28;20024;-72
2021/09/17 03:07:05;;;;;;;2.40;1.50;;;;;;;;;;5072593;28;20044;-73
2021/09/17 03:09:31;;;;;;;2.15;1.10;;;;;;;;;;5072770;28;20029;-72
2021/09/17 03:11:59;;;;;;;1.80;1.10;;;;;;;;;;5080222;28;20044;-72
2021/09/17 03:14:24;;;;;;;1.83;1.20;;;;;;;;;;5087450;28;20028;-72
2021/09/17 03:16:50;;;;;;;1.75;0.90;;;;;;;;;;5087117;28;20115;-72
2021/09/17 03:19:16;;;;;;;2.05;1.10;;;;;;;;;;5086065;28;20035;-72
2021/09/17 03:21:42;;;;;;;1.63;1.08;;;;;;;;;;5071772;28;20530;-71
2021/09/17 03:24:08;;;;;;;1.95;1.52;;;;;;;;;;5075336;28;20024;-72
2021/09/17 03:26:34;;;;;;;2.05;1.10;;;;;;;;;;5059366;28;20028;-72
2021/09/17 03:29:00;;;;;;;1.02;0.82;;;;;;;;;;5072052;28;20024;-73
2021/09/17 03:31:26;;;;;;;2.58;1.17;;;;;;;;;;5075812;28;20467;-72
2021/09/17 03:33:51;;;;;;;1.77;1.27;;;;;;;;;;5088974;28;20115;-71
2021/09/17 03:36:17;;;;;;;1.85;1.05;;;;;;;;;;5076272;28;20028;-71
2021/09/17 03:38:43;;;;;;;1.40;1.20;;;;;;;;;;5071924;28;20081;-72
2021/09/17 03:41:08;;;;;;;1.55;0.90;;;;;;;;;;5084512;28;20039;-71
2021/09/17 03:43:34;;;;;;;2.00;1.00;;;;;;;;;;5074579;28;20017;-72
2021/09/17 03:46:00;;;;;;;2.50;1.00;;;;;;;;;;5071542;28;20020;-77
2021/09/17 03:48:26;;;;;;;3.28;1.20;;;;;;;;;;5091580;28;20085;-72
2021/09/17 03:50:51;;;;;;;2.13;1.00;;;;;;;;;;5089891;28;20028;-72
2021/09/17 03:53:17;;;;;;;1.73;0.98;;;;;;;;;;5084842;28;20102;-73
2021/09/17 03:55:43;;;;;;;1.95;0.98;;;;;;;;;;5067691;28;20440;-73
2021/09/17 03:58:08;;;;;;;2.33;1.23;;;;;;;;;;5071332;28;20028;-73
2021/09/17 04:00:35;;;;;;;2.45;1.27;;;;;;;;;;5075384;28;20047;-72
2021/09/17 04:03:01;;;;;;;2.80;1.02;;;;;;;;;;5082952;28;20476;-72
2021/09/17 04:05:27;;;;;;;1.48;1.10;;;;;;;;;;5074366;28;20111;-73
2021/09/17 04:07:54;;;;;;;1.23;1.10;;;;;;;;;;5071576;28;20439;-73
2021/09/17 04:10:20;;;;;;;1.40;1.17;;;;;;;;;;5076804;28;20455;-73
2021/09/17 04:12:46;;;;;;;2.22;1.67;;;;;;;;;;5076304;28;20052;-72
2021/09/17 04:15:12;;;;;;;1.35;1.20;;;;;;;;;;5077384;28;20030;-73
2021/09/17 04:17:39;;;;;;;1.90;1.30;;;;;;;;;;5085938;28;20020;-73
2021/09/17 04:20:06;;;;;;;2.63;1.30;;;;;;;;;;5076312;28;20480;-72
2021/09/17 04:22:32;;;;;;;2.25;1.50;;;;;;;;;;5058331;28;20036;-72
2021/09/17 04:24:57;;;;;;;2.45;1.27;;;;;;;;;;5072179;28;20020;-72
2021/09/17 04:27:25;;;;;;;2.95;1.38;;;;;;;;;;5071300;28;20036;-73
2021/09/17 04:29:51;;;;;;;2.28;1.40;;;;;;;;;;5085007;28;20451;-72
2021/09/17 04:32:17;;;;;;;5.05;1.60;;;;;;;;;;5071318;28;20032;-73
2021/09/17 04:34:42;;;;;;;2.05;1.50;;;;;;;;;;5075006;28;20040;-73
2021/09/17 04:37:08;;;;;;;3.47;1.60;;;;;;;;;;5074378;28;20496;-74
2021/09/17 04:39:34;;;;;;;3.22;2.08;;;;;;;;;;5070576;28;20388;-74
2021/09/17 04:42:00;;;;;;;2.25;1.80;;;;;;;;;;5080917;28;20075;-73
2021/09/17 04:44:25;;;;;;;3.58;1.80;;;;;;;;;;5079275;28;20372;-73
2021/09/17 04:46:51;;;;;;;2.63;1.60;;;;;;;;;;5069761;28;20107;-73
2021/09/17 04:49:17;;;;;;;2.50;1.70;;;;;;;;;;5070050;28;20036;-72
2021/09/17 04:51:42;;;;;;;2.90;1.70;;;;;;;;;;5082316;28;20048;-71
2021/09/17 04:54:09;;;;;;;2.85;1.35;;;;;;;;;;5080267;28;20108;-73
2021/09/17 04:56:36;;;;;;;3.40;1.52;;;;;;;;;;5071936;28;20048;-73
2021/09/17 04:59:02;;;;;;;1.83;1.35;;;;;;;;;;5070830;28;20415;-73
2021/09/17 05:01:27;;;;;;;3.70;1.80;;;;;;;;;;5080847;28;20106;-73
2021/09/17 05:03:53;;;;;;;2.30;1.42;;;;;;;;;;5070732;28;20371;-73
2021/09/17 05:06:19;;;;;;;2.75;1.50;;;;;;;;;;5071051;28;20032;-72
2021/09/17 05:08:44;;;;;;;3.00;1.50;;;;;;;;;;5075310;28;20097;-74
2021/09/17 05:11:10;;;;;;;2.60;1.42;;;;;;;;;;5086865;28;20467;-73
2021/09/17 05:13:35;;;;;;;4.70;1.60;;;;;;;;;;5081952;28;20033;-73
2021/09/17 05:16:01;;;;;;;2.13;1.33;;;;;;;;;;5074328;28;20020;-72
2021/09/17 05:18:27;;;;;;;2.10;1.52;;;;;;;;;;5080479;28;20372;-74
2021/09/17 05:20:53;;;;;;;7.05;1.70;;;;;;;;;;5070797;28;20028;-75
2021/09/17 05:23:18;;;;;;;4.18;1.73;;;;;;;;;;5075848;28;20027;-73
2021/09/17 05:25:44;;;;;;;2.50;1.30;;;;;;;;;;5087313;28;20522;-73
2021/09/17 05:28:10;;;;;;;1.58;1.30;;;;;;;;;;5077945;28;20029;-73
2021/09/17 05:30:36;;;;;;;3.42;1.48;;;;;;;;;;5075552;28;20357;-73
2021/09/17 05:33:02;;;;;;;3.63;1.65;;;;;;;;;;5081143;28;20024;-74
2021/09/17 05:35:28;;;;;;;3.25;2.00;;;;;;;;;;5077880;28;20153;-73
2021/09/17 05:37:53;;;;;;;2.65;1.63;;;;;;;;;;5079436;28;20097;-73
2021/09/17 05:40:19;;;;;;;3.05;1.92;;;;;;;;;;5074328;28;20028;-73
2021/09/17 05:42:45;;;;;;;4.05;2.03;;;;;;;;;;5076805;28;20387;-73
2021/09/17 05:45:11;;;;;;;3.40;2.13;;;;;;;;;;5074018;28;20028;-74
2021/09/17 05:47:37;;;;;;;4.82;2.17;;;;;;;;;;5082634;28;20027;-74
2021/09/17 05:50:04;;;;;;;4.68;2.30;;;;;;;;;;5093664;28;20038;-73
2021/09/17 05:52:29;;;;;;;3.70;2.30;;;;;;;;;;5093295;28;20066;-74
2021/09/17 05:54:55;;;;;;;4.50;2.75;;;;;;;;;;5080698;28;20472;-73
2021/09/17 05:57:21;;;;;;;5.60;3.10;;;;;;;;;;5084883;28;20419;-72
2021/09/17 05:59:46;;;;;;;5.50;3.08;;;;;;;;;;5075467;28;20060;-74
2021/09/17 06:02:13;;;;;;;8.38;4.05;;;;;;;;;;5073438;28;20492;-74
2021/09/17 06:04:38;;;;;;;10.40;4.10;;;;;;;;;;5085520;28;20507;-74
2021/09/17 06:07:04;;;;;;;6.20;4.25;;;;;;;;;;5083882;28;20068;-72
2021/09/17 06:09:29;;;;;;;6.72;4.50;;;;;;;;;;5074360;28;20081;-74
2021/09/17 06:11:55;;;;;;;9.50;4.47;;;;;;;;;;5091460;28;20024;-73
2021/09/17 06:14:21;;;;;;;8.10;4.60;;;;;;;;;;5090097;28;20019;-74
2021/09/17 06:16:46;;;;;;;6.68;4.38;;;;;;;;;;5075082;28;20036;-74
2021/09/17 06:19:12;;;;;;;9.38;4.47;;;;;;;;;;5093611;28;20047;-74
2021/09/17 06:21:38;;;;;;;15.63;4.95;;;;;;;;;;5083128;28;20103;-74
2021/09/17 06:24:03;;;;;;;7.38;4.35;;;;;;;;;;5073243;28;20726;-73
2021/09/17 06:26:32;;;;;;;7.75;4.57;;;;;;;;;;5072846;28;20034;-73
2021/09/17 06:29:00;;;;;;;9.93;4.85;;;;;;;;;;5087916;28;20103;-73
2021/09/17 06:31:26;;;;;;;9.85;4.30;;;;;;;;;;5093322;28;20023;-74
2021/09/17 06:33:51;;;;;;;8.80;4.40;;;;;;;;;;5107022;28;20020;-72
2021/09/17 06:36:17;;;;;;;10.32;4.20;;;;;;;;;;5093257;28;20365;-74
2021/09/17 06:38:43;;;;;;;8.32;4.60;;;;;;;;;;5093032;28;20479;-73
2021/09/17 06:41:08;;;;;;;7.57;4.40;;;;;;;;;;5093228;28;20539;-73
2021/09/17 06:43:34;;;;;;;10.40;4.55;;;;;;;;;;5091293;28;20031;-73
2021/09/17 06:45:59;;;;;;;10.05;4.72;;;;;;;;;;5093270;28;20016;-73
2021/09/17 06:48:25;;;;;;;9.38;4.25;;;;;;;;;;5065299;28;20024;-74
2021/09/17 06:50:50;;;;;;;8.63;4.28;;;;;;;;;;5089677;28;20023;-74
2021/09/17 06:53:16;;;;;;;10.05;4.05;;;;;;;;;;5092510;28;20016;-76
2021/09/17 06:55:42;;;;;;;8.75;4.20;;;;;;;;;;5072683;28;20362;-73
2021/09/17 06:58:07;;;;;;;5.60;3.55;;;;;;;;;;5079493;28;20032;-73
2021/09/17 07:00:36;;;;;;;7.40;4.00;;;;;;;;;;5079215;28;20045;-74
2021/09/17 07:03:03;;;;;;;6.85;3.70;;;;;;;;;;5075847;28;20024;-77
2021/09/17 07:05:30;;;;;;;8.70;3.85;;;;;;;;;;5073061;28;20035;-78
2021/09/17 07:08:06;;;;;;;10.27;3.67;;;;;;;;;;5076466;28;20387;-74
2021/09/17 07:10:35;;;;;;;7.00;3.28;;;;;;;;;;5081698;28;20461;-74
2021/09/17 07:13:01;;;;;;;6.63;4.18;;;;;;;;;;5071734;28;20484;-74
2021/09/17 07:15:27;;;;;;;9.43;3.80;;;;;;;;;;5083686;28;20452;-74
2021/09/17 07:17:53;;;;;;;7.18;3.50;;;;;;;;;;5078794;28;20024;-72
2021/09/17 07:20:19;;;;;;;6.40;3.70;;;;;;;;;;5076275;28;20127;-73
2021/09/17 07:22:45;;;;;;;8.57;4.10;;;;;;;;;;5092402;28;20059;-76
2021/09/17 07:25:11;;;;;;;5.72;3.83;;;;;;;;;;5091276;28;20020;-73
2021/09/17 07:27:37;;;;;;;8.68;3.83;;;;;;;;;;5080933;28;20521;-75
2021/09/17 07:30:04;;;;;;;6.80;3.95;;;;;;;;;;5073907;28;20024;-73
2021/09/17 07:32:30;;;;;;;7.30;4.07;;;;;;;;;;5077566;28;20039;-74
2021/09/17 07:34:56;;;;;;;5.90;3.58;;;;;;;;;;5074055;28;20036;-75
2021/09/17 07:37:22;;;;;;;9.23;3.63;;;;;;;;;;5079692;28;20081;-73
2021/09/17 07:39:48;;;;;;;8.13;5.07;;;;;;;;;;5084940;28;20024;-77
2021/09/17 07:42:13;;;;;;;7.35;4.07;;;;;;;;;;5080431;28;20029;-79
2021/09/17 07:44:39;;;;;;;9.73;4.10;;;;;;;;;;5074235;28;20048;-77
2021/09/17 07:47:05;;;;;;;10.82;4.00;;;;;;;;;;5075486;28;20081;-76
2021/09/17 07:49:33;;;;;;;8.48;4.03;;;;;;;;;;5074087;28;20078;-78
2021/09/17 07:51:59;;;;;;;5.82;3.03;;;;;;;;;;5087557;28;20023;-77
2021/09/17 07:54:25;;;;;;;5.57;3.20;;;;;;;;;;5077375;28;20025;-78
2021/09/17 07:56:54;;;;;;;6.50;3.40;;;;;;;;;;5081725;28;20472;-79
2021/09/17 07:59:21;;;;;;;6.78;3.45;;;;;;;;;;5071852;28;20029;-79
2021/09/17 08:01:46;;;;;;;8.85;3.50;;;;;;;;;;5077050;28;20397;-77
2021/09/17 08:04:13;;;;;;;5.07;2.85;;;;;;;;;;5074114;28;20020;-73
2021/09/17 08:06:39;;;;;;;7.35;3.25;;;;;;;;;;5084051;28;20069;-73
2021/09/17 08:09:06;;;;;;;8.73;3.63;;;;;;;;;;5089935;28;20020;-75
2021/09/17 08:11:33;;;;;;;5.28;2.78;;;;;;;;;;5086585;28;20035;-74
2021/09/17 08:13:58;;;;;;;6.05;3.13;;;;;;;;;;5088411;28;20016;-75
2021/09/17 08:16:24;;;;;;;6.68;3.00;;;;;;;;;;5085992;28;20497;-75
2021/09/17 08:18:50;;;;;;;7.93;2.95;;;;;;;;;;5070488;28;20054;-76
2021/09/17 08:21:17;;;;;;;6.20;2.92;;;;;;;;;;5075316;28;20032;-74
2021/09/17 08:23:43;;;;;;;11.18;3.47;;;;;;;;;;5070970;28;20054;-76
2021/09/17 08:26:09;;;;;;;4.68;3.08;;;;;;;;;;5071750;28;20461;-73
2021/09/17 08:28:34;;;;;;;7.38;2.75;;;;;;;;;;5071230;28;20031;-77
2021/09/17 08:31:01;;;;;;;9.30;3.03;;;;;;;;;;5071709;28;20405;-74
2021/09/17 08:33:27;;;;;;;7.25;2.60;;;;;;;;;;5071273;28;20028;-74
2021/09/17 08:35:53;;;;;;;7.22;2.88;;;;;;;;;;5087212;28;20969;-75
2021/09/17 08:38:19;;;;;;;6.15;3.20;;;;;;;;;;5090501;28;20024;-74
2021/09/17 08:40:44;;;;;;;6.00;3.05;;;;;;;;;;5091631;28;20584;-76
2021/09/17 08:43:10;;;;;;;5.85;3.03;;;;;;;;;;5077724;28;20368;-72
2021/09/17 08:45:36;;;;;;;4.63;2.60;;;;;;;;;;5069446;28;20040;-73
2021/09/17 08:48:03;;;;;;;8.02;2.60;;;;;;;;;;5081530;28;20380;-73
2021/09/17 08:50:30;;;;;;;5.80;2.53;;;;;;;;;;5085771;28;20031;-74
2021/09/17 08:52:56;;;;;;;6.95;3.00;;;;;;;;;;5087358;28;20032;-73
2021/09/17 08:55:21;;;;;;;5.68;2.78;;;;;;;;;;5070680;28;20775;-76
2021/09/17 08:57:48;;;;;;;5.03;2.35;;;;;;;;;;5070506;28;20021;-73
2021/09/17 09:00:26;;;;;;;6.65;2.70;;;;;;;;;;5069671;28;20373;-75
2021/09/17 09:02:57;;;;;;;8.63;2.90;;;;;;;;;;5072656;28;20055;-74
2021/09/17 09:05:30;;;;;;;4.50;2.47;;;;;;;;;;5081425;28;20036;-73
2021/09/17 09:07:57;;;;;;;5.75;2.20;;;;;;;;;;5077610;28;20855;-75
2021/09/17 09:10:23;;;;;;;9.88;2.13;;;;;;;;;;5086096;28;20025;-77
2021/09/17 09:12:51;;;;;;;4.00;2.40;;;;;;;;;;5075707;28;20510;-74
2021/09/17 09:15:25;;;;;;;5.93;2.13;;;;;;;;;;5072212;28;20152;-74
2021/09/17 09:17:53;;;;;;;8.40;2.33;;;;;;;;;;5080329;28;20511;-75
2021/09/17 09:20:34;;;;;;;5.40;1.90;;;;;;;;;;5072396;28;20050;-75
2021/09/17 09:23:14;;;;;;;7.95;2.50;;;;;;;;;;5071807;28;20035;-76
2021/09/17 09:26:08;;;;;;;6.13;2.65;;;;;;;;;;5066185;28;20016;-78
2021/09/17 09:28:42;;;;;;;4.30;1.98;;;;;;;;;;5071201;28;20048;-77
2021/09/17 09:31:08;;;;;;;4.40;2.05;;;;;;;;;;5088899;28;20035;-76
2021/09/17 09:33:38;;;;;;;4.70;1.90;;;;;;;;;;5080574;28;20027;-77
2021/09/17 09:36:06;;;;;;;8.05;2.17;;;;;;;;;;5079395;28;20031;-76
2021/09/17 09:38:36;;;;;;;4.75;2.15;;;;;;;;;;5077260;28;20023;-77
2021/09/17 09:41:04;;;;;;;10.77;2.33;;;;;;;;;;5086521;28;20503;-74
2021/09/17 09:43:36;;;;;;;6.97;2.70;;;;;;;;;;5061800;28;20096;-74
2021/09/17 09:46:19;;;;;;;4.75;2.10;;;;;;;;;;5081666;28;20074;-73
2021/09/17 09:49:05;;;;;;;4.03;2.17;;;;;;;;;;5077363;28;20464;-77
2021/09/17 09:51:32;;;;;;;7.25;2.38;;;;;;;;;;5076020;28;20039;-74
2021/09/17 09:54:00;;;;;;;5.13;2.00;;;;;;;;;;5075385;28;21031;-74
2021/09/17 09:56:27;;;;;;;5.53;2.25;;;;;;;;;;5072630;28;20024;-74
2021/09/17 09:58:53;;;;;;;5.10;2.08;;;;;;;;;;5074519;28;20468;-74
2021/09/17 10:01:22;;;;;;;5.13;2.00;;;;;;;;;;5080471;28;20063;-75
2021/09/17 10:03:52;;;;;;;4.30;2.10;;;;;;;;;;5080326;28;20027;-75
2021/09/17 10:06:17;;;;;;;5.50;1.90;;;;;;;;;;5082675;28;20537;-74
2021/09/17 10:08:44;;;;;;;7.80;1.95;;;;;;;;;;5079809;28;20036;-76
2021/09/17 10:11:10;;;;;;;4.55;1.80;;;;;;;;;;5076215;28;20025;-75
2021/09/17 10:13:36;;;;;;;6.22;2.05;;;;;;;;;;5090086;28;20521;-75
2021/09/17 10:16:02;;;;;;;10.05;3.03;;;;;;;;;;5073289;28;20032;-76
2021/09/17 10:18:28;;;;;;;4.55;1.75;;;;;;;;;;5087806;28;20483;-75
2021/09/17 10:20:54;;;;;;;6.20;2.15;;;;;;;;;;5065896;28;20025;-74
2021/09/17 10:23:31;;;;;;;3.20;1.88;;;;;;;;;;5075050;28;20081;-76
2021/09/17 10:26:07;;;;;;;4.22;2.08;;;;;;;;;;5072701;28;20028;-75
2021/09/17 10:28:34;;;;;;;3.30;1.98;;;;;;;;;;5088575;28;20244;-75
2021/09/17 10:31:15;;;;;;;4.45;2.00;;;;;;;;;;5086719;28;20055;-73
2021/09/17 10:33:40;;;;;;;5.38;2.30;;;;;;;;;;5076633;28;20024;-77
2021/09/17 10:36:06;;;;;;;6.60;2.13;;;;;;;;;;5076302;28;20021;-76
2021/09/17 10:38:34;;;;;;;5.25;2.05;;;;;;;;;;5074632;28;20029;-74
2021/09/17 10:41:01;;;;;;;4.07;2.20;;;;;;;;;;5084062;28;20017;-75
2021/09/17 10:43:37;;;;;;;4.57;2.22;;;;;;;;;;5073267;28;20360;-76
2021/09/17 10:46:08;;;;;;;6.18;2.30;;;;;;;;;;5065588;28;20020;-75
2021/09/17 10:48:45;;;;;;;8.77;1.95;;;;;;;;;;5076525;28;20090;-78
2021/09/17 10:51:39;;;;;;;5.95;2.40;;;;;;;;;;5076921;28;20028;-74
2021/09/17 10:54:11;;;;;;;4.60;2.17;;;;;;;;;;5080428;28;20031;-75
2021/09/17 10:56:49;;;;;;;6.00;2.30;;;;;;;;;;5083075;28;20028;-76
2021/09/17 10:59:25;;;;;;;5.82;1.92;;;;;;;;;;5086798;28;20020;-75
2021/09/17 11:02:05;;;;;;;8.52;1.98;;;;;;;;;;5068481;28;20139;-75
2021/09/17 11:04:33;;;;;;;6.50;2.08;;;;;;;;;;5063794;28;20596;-76
2021/09/17 11:07:22;;;;;;;5.00;2.00;;;;;;;;;;5086478;28;20060;-78
2021/09/17 11:09:48;;;;;;;5.38;2.00;;;;;;;;;;5080159;28;20486;-76
2021/09/17 11:12:16;;;;;;;6.47;2.33;;;;;;;;;;5083031;28;20029;-75
2021/09/17 11:14:42;;;;;;;5.28;2.15;;;;;;;;;;5073029;28;20114;-75
2021/09/17 11:17:07;;;;;;;6.90;2.42;;;;;;;;;;5077987;28;20060;-75
2021/09/17 11:19:33;;;;;;;8.35;2.45;;;;;;;;;;5082076;28;20118;-75
2021/09/17 11:22:01;;;;;;;5.75;2.17;;;;;;;;;;5081151;28;20029;-75
2021/09/17 11:24:28;;;;;;;5.75;2.20;;;;;;;;;;5055956;28;20024;-74
2021/09/17 11:26:57;;;;;;;7.05;2.10;;;;;;;;;;5075207;28;20112;-74
2021/09/17 11:29:24;;;;;;;6.93;2.50;;;;;;;;;;5081999;28;20025;-74
2021/09/17 11:31:59;;;;;;;7.38;2.00;;;;;;;;;;5090596;28;20032;-76
2021/09/17 11:34:28;;;;;;;6.82;2.30;;;;;;;;;;5080881;28;20036;-75
2021/09/17 11:37:00;;;;;;;7.97;2.30;;;;;;;;;;5090356;28;20035;-74
2021/09/17 11:39:28;;;;;;;5.30;2.30;;;;;;;;;;5082069;28;20070;-77
2021/09/17 11:41:58;;;;;;;5.80;2.97;;;;;;;;;;5077727;28;20055;-76
2021/09/17 11:44:42;;;;;;;6.38;2.10;;;;;;;;;;5072375;28;20391;-76
2021/09/17 11:47:09;;;;;;;6.60;2.47;;;;;;;;;;5074154;28;20032;-75
2021/09/17 11:49:42;;;;;;;6.75;2.30;;;;;;;;;;5080660;28;20059;-76
2021/09/17 11:52:09;;;;;;;7.70;2.33;;;;;;;;;;5078272;28;20031;-77
2021/09/17 11:54:36;;;;;;;7.53;2.70;;;;;;;;;;5076599;28;20024;-76
2021/09/17 11:57:13;;;;;;;7.85;2.30;;;;;;;;;;5079034;28;20031;-75
2021/09/17 11:59:44;;;;;;;6.20;2.33;;;;;;;;;;5076531;28;20379;-77
2021/09/17 12:02:14;;;;;;;6.93;3.13;;;;;;;;;;5057674;28;20036;-76
2021/09/17 12:04:51;;;;;;;8.32;2.78;;;;;;;;;;5069942;28;20106;-76
2021/09/17 12:07:17;;;;;;;9.82;2.70;;;;;;;;;;5079412;28;20534;-76
2021/09/17 12:09:43;;;;;;;17.83;10.13;;;;;;;;;;5085811;28;20093;-76
2021/09/17 12:12:09;;;;;;;7.18;2.70;;;;;;;;;;5079985;28;20065;-74
2021/09/17 12:14:37;;;;;;;7.32;3.00;;;;;;;;;;5077687;28;20086;-75
2021/09/17 12:17:07;;;;;;;6.45;3.05;;;;;;;;;;5071856;28;20063;-75
2021/09/17 12:19:56;;;;;;;5.97;2.78;;;;;;;;;;5071575;28;20111;-76
2021/09/17 12:22:40;;;;;;;5.82;2.63;;;;;;;;;;5070881;28;20423;-75
2021/09/17 12:25:06;;;;;;;;;;;;;;;;;;5071777;28;20040;-76
2021/09/17 12:27:32;;;;;;;7.57;3.15;;;;;;;;;;5071551;28;19916;-75
2021/09/17 12:30:08;;;;;;;6.93;2.60;;;;;;;;;;5070899;28;20492;-76
2021/09/17 12:32:35;;;;;;;6.57;3.20;;;;;;;;;;5070495;28;20450;-76
2021/09/17 12:35:28;;;;;;;9.10;2.90;;;;;;;;;;5071408;28;20031;-76
2021/09/17 12:37:55;;;;;;;6.57;2.78;;;;;;;;;;5077734;28;20028;-78
2021/09/17 12:40:26;;;;;;;7.10;3.08;;;;;;;;;;5086800;28;20032;-79
2021/09/17 12:43:05;;;;;;;7.55;2.85;;;;;;;;;;5077862;28;20020;-77
2021/09/17 12:45:32;;;;;;;6.22;2.67;;;;;;;;;;5070785;28;20089;-78
2021/09/17 12:48:00;;;;;;;4.72;2.72;;;;;;;;;;5077157;28;20052;-77
2021/09/17 12:50:32;;;;;;;6.15;3.10;;;;;;;;;;5091096;28;20065;-76
2021/09/17 12:52:57;;;;;;;6.43;2.80;;;;;;;;;;5082531;28;20038;-76
2021/09/17 12:55:29;;;;;;;11.55;2.97;;;;;;;;;;5074203;28;20103;-78
2021/09/17 12:57:58;;;;;;;4.78;2.72;;;;;;;;;;5072815;28;20020;-77
2021/09/17 13:00:24;;;;;;;11.07;3.00;;;;;;;;;;5076541;28;20080;-75
2021/09/17 13:02:52;;;;;;;5.05;2.90;;;;;;;;;;5081226;28;20111;-77
2021/09/17 13:05:18;;;;;;;6.22;2.60;;;;;;;;;;5066427;28;20028;-76
2021/09/17 13:07:43;;;;;;;6.05;2.80;;;;;;;;;;5081656;28;20017;-76
2021/09/17 13:10:09;;;;;;;5.38;2.33;;;;;;;;;;5053336;28;20035;-77
2021/09/17 13:12:37;;;;;;;5.50;2.67;;;;;;;;;;5078458;28;20464;-76
2021/09/17 13:15:04;;;;;;;6.63;2.20;;;;;;;;;;5064912;28;20048;-75
2021/09/17 13:17:29;;;;;;;4.32;2.50;;;;;;;;;;5081344;28;20039;-75
2021/09/17 13:19:55;;;;;;;7.32;2.40;;;;;;;;;;5085339;28;20364;-76
2021/09/17 13:22:21;;;;;;;6.68;2.28;;;;;;;;;;5081953;28;20032;-75
2021/09/17 13:24:47;;;;;;;5.53;2.50;;;;;;;;;;5088624;28;20020;-75
2021/09/17 13:27:12;;;;;;;6.70;2.42;;;;;;;;;;5081670;28;20354;-77
2021/09/17 13:29:39;;;;;;;5.45;2.13;;;;;;;;;;5073743;28;20476;-75
2021/09/17 13:32:06;;;;;;;4.22;2.40;;;;;;;;;;5087913;28;20032;-75
2021/09/17 13:34:31;;;;;;;6.22;2.20;;;;;;;;;;5083442;28;20035;-75
2021/09/17 13:36:57;;;;;;;6.35;2.63;;;;;;;;;;5083803;28;20029;-78
2021/09/17 13:39:23;;;;;;;4.38;2.35;;;;;;;;;;5093298;28;20028;-75
2021/09/17 13:41:48;;;;;;;4.20;2.40;;;;;;;;;;5090576;28;20093;-78
2021/09/17 13:44:14;;;;;;;5.55;2.30;;;;;;;;;;5082441;28;20038;-77
2021/09/17 13:46:39;;;;;;;8.45;3.00;;;;;;;;;;5085475;28;20115;-76
2021/09/17 13:49:05;;;;;;;6.60;2.75;;;;;;;;;;5083464;28;20462;-77
2021/09/17 13:51:32;;;;;;;8.57;3.17;;;;;;;;;;5085878;28;20109;-76
2021/09/17 13:53:59;;;;;;;5.95;2.67;;;;;;;;;;5080737;28;20387;-76
2021/09/17 13:56:24;;;;;;;7.15;2.72;;;;;;;;;;5074119;28;20040;-76
2021/09/17 13:58:50;;;;;;;5.63;2.63;;;;;;;;;;5077016;28;20515;-78
2021/09/17 14:01:15;;;;;;;6.68;2.97;;;;;;;;;;5079044;28;20056;-76
2021/09/17 14:03:41;;;;;;;4.38;2.55;;;;;;;;;;5090048;28;20031;-74
2021/09/17 14:06:07;;;;;;;4.88;2.38;;;;;;;;;;5076971;28;20426;-77
2021/09/17 14:08:32;;;;;;;6.75;2.63;;;;;;;;;;5078351;28;20020;-75
2021/09/17 14:10:58;;;;;;;7.20;2.28;;;;;;;;;;5080688;28;20024;-74
2021/09/17 14:13:23;;;;;;;8.30;2.63;;;;;;;;;;5074365;28;20028;-73
2021/09/17 14:15:49;;;;;;;5.55;2.50;;;;;;;;;;5074862;28;20039;-74
2021/09/17 14:18:14;;;;;;;6.50;2.72;;;;;;;;;;5078822;28;20101;-75
2021/09/17 14:20:40;;;;;;;4.65;2.38;;;;;;;;;;5080552;28;20026;-76
2021/09/17 14:23:06;;;;;;;6.43;2.58;;;;;;;;;;5073224;28;20113;-74
2021/09/17 14:25:31;;;;;;;5.40;2.40;;;;;;;;;;5072916;28;20057;-77
2021/09/17 14:27:57;;;;;;;5.63;2.60;;;;;;;;;;5075033;28;20024;-75
2021/09/17 14:30:22;;;;;;;6.25;2.55;;;;;;;;;;5073794;28;20107;-77
2021/09/17 14:32:53;;;;;;;5.57;2.47;;;;;;;;;;5073408;28;20032;-76
2021/09/17 14:35:19;;;;;;;5.80;2.70;;;;;;;;;;5072211;28;20253;-75
2021/09/17 14:37:45;;;;;;;6.35;2.78;;;;;;;;;;5076757;28;20017;-75
2021/09/17 14:40:12;;;;;;;7.25;2.30;;;;;;;;;;5086544;28;20031;-76
2021/09/17 14:42:38;;;;;;;5.13;2.40;;;;;;;;;;5083555;28;20111;-75
2021/09/17 14:45:06;;;;;;;4.30;2.40;;;;;;;;;;5101560;28;20159;-76